createdAt,value
2023-09-06T00:02:26.229Z,5.73
2023-09-06T00:04:53.308Z,5.63
2023-09-06T00:07:24.353Z,5.67
2023-09-06T00:09:52.336Z,5.90
2023-09-06T00:12:20.317Z,5.37
2023-09-06T00:14:49.039Z,5.73
2023-09-06T00:17:17.583Z,5.90
2023-09-06T00:19:46.253Z,5.50
2023-09-06T00:22:14.536Z,5.70
2023-09-06T00:24:42.609Z,5.40
2023-09-06T00:27:09.752Z,5.40
2023-09-06T00:29:37.611Z,5.37
2023-09-06T00:32:06.091Z,5.30
2023-09-06T00:34:35.232Z,5.27
2023-09-06T00:37:11.645Z,5.30
2023-09-06T00:39:40.821Z,5.13
2023-09-06T00:42:09.822Z,5.50
2023-09-06T00:44:37.288Z,5.40
2023-09-06T00:47:04.874Z,5.00
2023-09-06T00:49:34.123Z,4.83
2023-09-06T00:52:01.822Z,4.93
2023-09-06T00:54:29.107Z,5.30
2023-09-06T00:56:57.970Z,5.27
2023-09-06T00:59:31.002Z,5.40
2023-09-06T01:02:00.679Z,5.23
2023-09-06T01:04:28.693Z,5.10
2023-09-06T01:06:59.591Z,4.90
2023-09-06T01:09:30.777Z,5.30
2023-09-06T01:11:58.784Z,5.20
2023-09-06T01:14:27.157Z,5.60
2023-09-06T01:16:58.855Z,4.93
2023-09-06T01:19:30.573Z,5.33
2023-09-06T01:22:36.357Z,4.97
2023-09-06T01:25:05.135Z,5.23
2023-09-06T01:27:40.444Z,5.30
2023-09-06T01:30:16.352Z,5.20
2023-09-06T01:35:31.768Z,5.30
2023-09-06T01:38:03.020Z,5.30
2023-09-06T01:43:14.404Z,5.00
2023-09-06T01:45:57.360Z,5.20
2023-09-06T01:48:26.622Z,5.27
2023-09-06T01:50:55.495Z,5.43
2023-09-06T01:53:27.511Z,4.90
2023-09-06T01:55:55.431Z,5.23
2023-09-06T01:58:23.423Z,5.50
2023-09-06T02:00:51.316Z,5.13
2023-09-06T02:03:20.282Z,5.30
2023-09-06T02:05:48.115Z,5.70
2023-09-06T02:08:15.960Z,5.43
2023-09-06T02:10:49.433Z,5.50
2023-09-06T02:13:16.866Z,5.37
2023-09-06T02:15:47.788Z,5.50
2023-09-06T02:18:21.884Z,5.33
2023-09-06T02:20:52.819Z,5.63
2023-09-06T02:23:30.104Z,5.47
2023-09-06T02:26:10.956Z,5.27
2023-09-06T02:28:41.424Z,5.23
2023-09-06T02:31:13.116Z,5.40
2023-09-06T02:33:48.994Z,5.50
2023-09-06T02:36:18.801Z,5.30
2023-09-06T02:38:48.397Z,5.30
2023-09-06T02:41:16.589Z,5.40
2023-09-06T02:43:44.100Z,5.33
2023-09-06T02:46:13.861Z,5.50
2023-09-06T02:48:43.262Z,5.30
2023-09-06T02:51:11.846Z,5.90
2023-09-06T02:53:46.172Z,5.50
2023-09-06T02:56:17.059Z,5.50
2023-09-06T02:58:45.106Z,5.53
2023-09-06T03:01:21.863Z,5.53
2023-09-06T03:03:52.988Z,5.50
2023-09-06T03:06:34.388Z,5.10
2023-09-06T03:09:10.485Z,5.07
2023-09-06T03:11:40.101Z,5.40
2023-09-06T03:14:07.628Z,5.53
2023-09-06T03:16:40.423Z,5.60
2023-09-06T03:19:12.832Z,5.33
2023-09-06T03:21:42.085Z,5.33
2023-09-06T03:24:14.059Z,5.57
2023-09-06T03:26:45.710Z,5.23
2023-09-06T03:29:17.522Z,5.40
2023-09-06T03:31:48.552Z,5.80
2023-09-06T03:34:17.553Z,5.33
2023-09-06T03:36:48.361Z,6.53
2023-09-06T03:39:17.087Z,5.93
2023-09-06T03:41:45.085Z,5.90
2023-09-06T03:44:19.724Z,5.93
2023-09-06T03:46:51.084Z,6.70
2023-09-06T03:49:20.507Z,5.90
2023-09-06T03:51:47.937Z,5.60
2023-09-06T03:54:19.216Z,5.83
2023-09-06T03:56:49.044Z,6.17
2023-09-06T03:59:16.878Z,6.50
2023-09-06T04:01:47.876Z,6.00
2023-09-06T04:04:16.059Z,6.13
2023-09-06T04:07:40.161Z,6.00
2023-09-06T04:10:40.613Z,6.17
2023-09-06T04:13:12.912Z,6.10
2023-09-06T04:15:42.224Z,5.87
2023-09-06T04:18:14.242Z,5.93
2023-09-06T04:20:47.996Z,5.90
2023-09-06T04:23:19.377Z,6.47
2023-09-06T04:25:52.529Z,6.00
2023-09-06T04:28:30.681Z,5.87
2023-09-06T04:31:01.895Z,5.90
2023-09-06T04:33:35.207Z,5.80
2023-09-06T04:36:12.746Z,5.90
2023-09-06T04:38:43.951Z,5.57
2023-09-06T04:41:13.029Z,5.70
2023-09-06T04:43:50.736Z,5.63
2023-09-06T04:46:18.693Z,5.67
2023-09-06T04:48:49.583Z,5.70
2023-09-06T04:51:18.794Z,6.07
2023-09-06T04:53:47.520Z,6.27
2023-09-06T04:56:20.100Z,6.17
2023-09-06T04:58:51.243Z,5.97
2023-09-06T05:01:19.874Z,5.90
2023-09-06T05:03:48.713Z,5.90
2023-09-06T05:06:17.353Z,6.20
2023-09-06T05:08:46.196Z,5.47
2023-09-06T05:11:19.353Z,6.27
2023-09-06T05:13:51.074Z,6.13
2023-09-06T05:16:20.865Z,6.03
2023-09-06T05:18:50.417Z,6.20
2023-09-06T05:21:21.677Z,5.60
2023-09-06T05:23:54.010Z,5.60
2023-09-06T05:26:24.117Z,5.80
2023-09-06T05:28:52.341Z,5.67
2023-09-06T05:31:20.598Z,5.40
2023-09-06T05:33:50.329Z,5.43
2023-09-06T05:36:21.837Z,5.93
2023-09-06T05:38:49.617Z,5.87
2023-09-06T05:41:21.724Z,5.40
2023-09-06T05:43:50.493Z,5.60
2023-09-06T05:46:32.406Z,5.53
2023-09-06T05:49:06.735Z,5.60
2023-09-06T05:51:38.259Z,5.77
2023-09-06T05:54:06.379Z,6.00
2023-09-06T05:56:37.230Z,6.10
2023-09-06T05:59:07.435Z,6.03
2023-09-06T06:01:35.933Z,6.27
2023-09-06T06:04:04.421Z,5.70
2023-09-06T06:06:32.296Z,5.70
2023-09-06T06:09:02.200Z,5.80
2023-09-06T06:11:29.516Z,5.63
2023-09-06T06:14:09.734Z,5.37
2023-09-06T06:16:48.073Z,5.73
2023-09-06T06:19:15.911Z,5.63
2023-09-06T06:21:45.437Z,5.50
2023-09-06T06:24:15.420Z,6.30
2023-09-06T06:26:43.289Z,6.13
2023-09-06T06:29:11.903Z,5.33
2023-09-06T06:31:39.973Z,5.40
2023-09-06T06:34:08.000Z,5.57
2023-09-06T06:36:35.613Z,5.50
2023-09-06T06:39:03.036Z,5.93
2023-09-06T06:41:30.568Z,5.60
2023-09-06T06:43:57.961Z,5.67
2023-09-06T06:46:35.067Z,5.27
2023-09-06T06:49:06.047Z,5.70
2023-09-06T06:51:43.187Z,5.27
2023-09-06T06:54:16.096Z,5.50
2023-09-06T06:56:43.608Z,5.30
2023-09-06T06:59:11.266Z,5.70
2023-09-06T07:01:40.259Z,5.70
2023-09-06T07:04:07.627Z,5.87
2023-09-06T07:06:37.204Z,5.70
2023-09-06T07:09:05.273Z,6.00
2023-09-06T07:11:33.559Z,5.20
2023-09-06T07:14:02.002Z,5.57
2023-09-06T07:16:35.582Z,5.53
2023-09-06T07:19:03.911Z,4.90
2023-09-06T07:21:32.562Z,5.57
2023-09-06T07:23:59.997Z,5.03
2023-09-06T07:26:26.772Z,4.50
2023-09-06T07:28:55.013Z,5.17
2023-09-06T07:31:22.867Z,5.27
2023-09-06T07:33:51.402Z,4.40
2023-09-06T07:36:21.025Z,4.87
2023-09-06T07:38:50.704Z,5.17
2023-09-06T07:41:21.407Z,4.77
2023-09-06T07:43:49.141Z,4.97
2023-09-06T07:46:17.289Z,4.80
2023-09-06T07:48:45.406Z,4.83
2023-09-06T07:51:13.591Z,4.90
2023-09-06T07:53:41.076Z,4.63
2023-09-06T07:56:09.760Z,4.70
2023-09-06T07:59:23.638Z,4.27
2023-09-06T08:01:55.577Z,3.90
2023-09-06T08:04:23.409Z,4.27
2023-09-06T08:06:51.352Z,4.20
2023-09-06T08:09:18.711Z,4.50
2023-09-06T08:11:47.259Z,4.20
2023-09-06T08:14:14.482Z,4.20
2023-09-06T08:16:42.134Z,4.30
2023-09-06T08:19:09.638Z,3.90
2023-09-06T08:21:36.868Z,3.92
2023-09-06T08:24:05.171Z,3.22
2023-09-06T08:26:32.956Z,3.40
2023-09-06T08:29:00.935Z,3.22
2023-09-06T08:31:28.841Z,3.28
2023-09-06T08:33:57.748Z,3.45
2023-09-06T08:36:29.150Z,3.10
2023-09-06T08:38:57.082Z,3.13
2023-09-06T08:41:27.953Z,3.17
2023-09-06T08:43:56.717Z,2.92
2023-09-06T08:46:34.657Z,2.97
2023-09-06T08:49:05.053Z,3.03
2023-09-06T08:51:37.186Z,2.97
2023-09-06T08:54:07.903Z,2.65
2023-09-06T08:56:36.768Z,2.90
2023-09-06T08:59:05.084Z,2.90
2023-09-06T09:01:33.286Z,3.00
2023-09-06T09:04:01.306Z,3.20
2023-09-06T09:06:30.991Z,2.97
2023-09-06T09:09:19.048Z,2.90
2023-09-06T09:11:52.281Z,2.85
2023-09-06T09:14:22.722Z,3.05
2023-09-06T09:17:00.686Z,2.90
2023-09-06T09:19:29.626Z,3.40
2023-09-06T09:21:58.067Z,2.95
2023-09-06T09:24:28.580Z,2.80
2023-09-06T09:26:58.159Z,3.15
2023-09-06T09:29:25.916Z,2.97
2023-09-06T09:31:55.242Z,2.90
2023-09-06T09:34:22.744Z,3.22
2023-09-06T09:36:52.121Z,2.85
2023-09-06T09:39:21.673Z,2.90
2023-09-06T09:41:59.054Z,3.10
2023-09-06T09:44:27.689Z,3.00
2023-09-06T09:47:06.675Z,3.30
2023-09-06T09:49:45.505Z,3.05
2023-09-06T09:52:14.293Z,3.15
2023-09-06T09:54:44.584Z,3.00
2023-09-06T09:57:13.622Z,3.05
2023-09-06T09:59:42.752Z,3.10
2023-09-06T10:02:27.965Z,3.15
2023-09-06T10:05:04.471Z,3.25
2023-09-06T10:07:48.262Z,3.08
2023-09-06T10:10:19.412Z,3.35
2023-09-06T10:12:53.511Z,3.13
2023-09-06T10:15:25.232Z,3.55
2023-09-06T10:17:57.795Z,3.58
2023-09-06T10:20:26.095Z,3.22
2023-09-06T10:22:58.769Z,3.83
2023-09-06T10:25:29.692Z,3.47
2023-09-06T10:27:59.208Z,3.33
2023-09-06T10:30:50.154Z,3.10
2023-09-06T10:33:38.085Z,3.33
2023-09-06T10:36:10.789Z,3.30
2023-09-06T10:38:55.706Z,3.40
2023-09-06T10:41:24.588Z,3.28
2023-09-06T10:44:02.864Z,3.13
2023-09-06T10:46:37.829Z,2.85
2023-09-06T10:49:14.822Z,3.15
2023-09-06T10:51:58.113Z,2.90
2023-09-06T10:54:44.104Z,3.25
2023-09-06T10:57:16.080Z,2.97
2023-09-06T10:59:45.976Z,2.70
2023-09-06T11:02:23.022Z,3.20
2023-09-06T11:05:05.621Z,3.15
2023-09-06T11:07:49.309Z,3.00
2023-09-06T11:10:21.901Z,2.72
2023-09-06T11:12:49.459Z,2.90
2023-09-06T11:15:17.076Z,2.85
2023-09-06T11:17:47.465Z,3.08
2023-09-06T11:20:18.729Z,3.40
2023-09-06T11:22:49.931Z,3.03
2023-09-06T11:25:22.499Z,2.83
2023-09-06T11:27:51.855Z,2.90
2023-09-06T11:30:28.204Z,2.90
2023-09-06T11:32:57.130Z,2.63
2023-09-06T11:35:34.318Z,2.90
2023-09-06T11:38:03.656Z,2.70
2023-09-06T11:40:33.719Z,2.78
2023-09-06T11:43:06.859Z,3.30
2023-09-06T11:45:36.080Z,2.70
2023-09-06T11:48:10.062Z,2.90
2023-09-06T11:50:40.102Z,3.25
2023-09-06T11:53:11.898Z,2.80
2023-09-06T11:55:44.169Z,2.80
2023-09-06T11:58:20.280Z,3.00
2023-09-06T12:00:49.669Z,2.97
2023-09-06T12:03:18.685Z,2.70
2023-09-06T12:05:50.230Z,2.70
2023-09-06T12:08:24.205Z,3.00
2023-09-06T12:11:07.049Z,2.90
2023-09-06T12:13:37.440Z,2.90
2023-09-06T12:16:09.574Z,2.72
2023-09-06T12:18:38.345Z,2.70
2023-09-06T12:21:07.489Z,2.60
2023-09-06T12:23:38.467Z,3.10
2023-09-06T12:26:08.308Z,2.63
2023-09-06T12:28:37.238Z,2.97
2023-09-06T12:33:38.605Z,2.60
2023-09-06T12:36:08.587Z,2.75
2023-09-06T12:38:36.925Z,2.60
2023-09-06T12:41:06.402Z,2.75
2023-09-06T12:43:37.748Z,2.78
2023-09-06T12:46:08.179Z,2.88
2023-09-06T12:48:39.985Z,2.72
2023-09-06T12:51:08.829Z,2.53
2023-09-06T12:53:36.391Z,2.80
2023-09-06T12:56:04.739Z,2.42
2023-09-06T12:58:33.886Z,2.60
2023-09-06T13:01:06.988Z,2.55
2023-09-06T13:03:35.173Z,2.53
2023-09-06T13:06:04.532Z,2.50
2023-09-06T13:08:37.815Z,2.58
2023-09-06T13:11:06.407Z,2.63
2023-09-06T13:13:34.954Z,2.53
2023-09-06T13:16:03.479Z,2.60
2023-09-06T13:18:31.108Z,2.30
2023-09-06T13:20:59.191Z,2.53
2023-09-06T13:23:26.666Z,2.50
2023-09-06T13:25:55.252Z,2.67
2023-09-06T13:28:22.619Z,2.60
2023-09-06T13:30:49.958Z,2.63
2023-09-06T13:33:17.562Z,2.80
2023-09-06T13:35:45.133Z,2.50
2023-09-06T13:38:15.504Z,2.40
2023-09-06T13:40:43.033Z,2.60
2023-09-06T13:43:11.867Z,2.30
2023-09-06T13:45:42.071Z,2.90
2023-09-06T13:48:12.079Z,2.70
2023-09-06T13:50:40.255Z,2.85
2023-09-06T13:53:08.019Z,2.40
2023-09-06T13:55:35.762Z,2.60
2023-09-06T13:58:06.531Z,2.55
2023-09-06T14:00:34.503Z,2.78
2023-09-06T14:03:02.656Z,2.60
2023-09-06T14:05:32.959Z,2.60
2023-09-06T14:08:01.956Z,2.78
2023-09-06T14:10:30.351Z,2.90
2023-09-06T14:12:57.704Z,2.53
2023-09-06T14:15:25.271Z,2.55
2023-09-06T14:17:53.422Z,2.85
2023-09-06T14:20:21.648Z,2.50
2023-09-06T14:22:49.539Z,2.55
2023-09-06T14:25:18.929Z,2.08
2023-09-06T14:27:45.749Z,2.70
2023-09-06T14:30:13.823Z,2.67
2023-09-06T14:32:42.421Z,2.42
2023-09-06T14:35:09.693Z,2.45
2023-09-06T14:37:37.111Z,2.50
2023-09-06T14:40:05.510Z,2.30
2023-09-06T14:42:34.242Z,2.60
2023-09-06T14:45:01.982Z,2.42
2023-09-06T14:47:30.303Z,2.50
2023-09-06T14:49:58.644Z,2.67
2023-09-06T14:52:26.126Z,2.38
2023-09-06T14:54:54.076Z,2.53
2023-09-06T14:57:22.681Z,2.40
2023-09-06T14:59:52.462Z,2.50
2023-09-06T15:02:20.671Z,2.35
2023-09-06T15:04:48.298Z,2.42
2023-09-06T15:07:15.673Z,2.50
2023-09-06T15:09:43.803Z,2.30
2023-09-06T15:12:11.411Z,2.42
2023-09-06T15:14:40.618Z,2.30
2023-09-06T15:17:08.970Z,2.45
2023-09-06T15:19:36.658Z,2.60
2023-09-06T15:22:04.962Z,2.42
2023-09-06T15:24:32.821Z,2.45
2023-09-06T15:27:00.207Z,2.47
2023-09-06T15:29:27.628Z,2.60
2023-09-06T15:31:55.357Z,2.30
2023-09-06T15:34:24.249Z,2.30
2023-09-06T15:36:52.531Z,2.38
2023-09-06T15:39:20.891Z,2.50
2023-09-06T15:41:48.029Z,2.47
2023-09-06T15:44:15.879Z,2.30
2023-09-06T15:46:43.569Z,2.42
2023-09-06T15:49:10.652Z,2.38
2023-09-06T15:51:39.080Z,2.20
2023-09-06T15:54:06.526Z,2.50
2023-09-06T15:56:33.845Z,2.53
2023-09-06T15:59:01.369Z,2.20
2023-09-06T16:01:32.076Z,2.40
2023-09-06T16:04:02.957Z,2.53
2023-09-06T16:06:33.506Z,2.53
2023-09-06T16:09:01.308Z,2.42
2023-09-06T16:11:29.083Z,2.60
2023-09-06T16:13:56.461Z,2.50
2023-09-06T16:16:24.862Z,2.38
2023-09-06T16:18:54.401Z,2.50
2023-09-06T16:21:21.929Z,2.38
2023-09-06T16:23:49.362Z,2.60
2023-09-06T16:26:17.210Z,3.60
2023-09-06T16:28:44.905Z,2.50
2023-09-06T16:31:12.562Z,2.60
2023-09-06T16:33:39.545Z,2.47
2023-09-06T16:36:08.706Z,2.30
2023-09-06T16:38:36.934Z,2.45
2023-09-06T16:41:06.833Z,2.50
2023-09-06T16:43:34.029Z,2.67
2023-09-06T16:46:01.855Z,2.80
2023-09-06T16:48:29.396Z,3.03
2023-09-06T16:50:56.888Z,2.75
2023-09-06T16:53:24.010Z,2.42
2023-09-06T16:55:51.559Z,2.65
2023-09-06T16:58:18.486Z,2.53
2023-09-06T17:00:45.410Z,2.70
2023-09-06T17:03:16.574Z,2.35
2023-09-06T17:05:49.355Z,2.70
2023-09-06T17:08:25.540Z,2.90
2023-09-06T17:10:54.001Z,2.65
2023-09-06T17:13:22.444Z,2.63
2023-09-06T17:15:50.398Z,2.90
2023-09-06T17:18:18.373Z,2.80
2023-09-06T17:20:46.336Z,2.60
2023-09-06T17:23:13.582Z,3.00
2023-09-06T17:25:42.311Z,2.97
2023-09-06T17:28:10.717Z,3.20
2023-09-06T17:30:39.203Z,2.90
2023-09-06T17:33:13.360Z,3.00
2023-09-06T17:35:45.695Z,3.20
2023-09-06T17:38:14.869Z,3.38
2023-09-06T17:40:47.529Z,3.42
2023-09-06T17:43:17.247Z,3.17
2023-09-06T17:45:46.872Z,3.22
2023-09-06T17:48:15.507Z,3.05
2023-09-06T17:50:46.325Z,3.38
2023-09-06T17:53:15.392Z,3.20
2023-09-06T17:55:43.188Z,3.47
2023-09-06T17:58:10.689Z,3.30
2023-09-06T18:00:43.847Z,3.33
2023-09-06T18:03:16.573Z,3.65
2023-09-06T18:05:56.809Z,5.30
2023-09-06T18:08:28.321Z,3.92
2023-09-06T18:10:56.540Z,3.50
2023-09-06T18:13:24.687Z,3.10
2023-09-06T18:15:54.230Z,3.63
2023-09-06T18:18:21.413Z,3.42
2023-09-06T18:20:49.140Z,3.47
2023-09-06T18:23:17.259Z,3.50
2023-09-06T18:25:46.523Z,3.13
2023-09-06T18:28:14.553Z,3.47
2023-09-06T18:30:48.717Z,3.33
2023-09-06T18:33:21.347Z,3.13
2023-09-06T18:35:49.726Z,3.65
2023-09-06T18:38:17.880Z,3.45
2023-09-06T18:40:47.116Z,3.78
2023-09-06T18:43:17.592Z,4.13
2023-09-06T18:45:45.807Z,3.90
2023-09-06T18:48:18.212Z,4.07
2023-09-06T18:50:52.805Z,3.63
2023-09-06T18:53:22.936Z,3.97
2023-09-06T18:55:52.372Z,3.85
2023-09-06T18:58:19.434Z,3.92
2023-09-06T19:00:48.147Z,4.07
2023-09-06T19:03:16.099Z,3.78
2023-09-06T19:05:45.085Z,3.75
2023-09-06T19:08:14.234Z,3.85
2023-09-06T19:10:42.369Z,3.80
2023-09-06T19:13:10.529Z,4.10
2023-09-06T19:15:37.652Z,3.83
2023-09-06T19:18:04.955Z,4.00
2023-09-06T19:20:32.008Z,4.00
2023-09-06T19:22:59.546Z,4.03
2023-09-06T19:25:27.041Z,4.27
2023-09-06T19:27:54.238Z,3.87
2023-09-06T19:30:21.948Z,4.10
2023-09-06T19:32:49.729Z,4.17
2023-09-06T19:35:17.304Z,4.30
2023-09-06T19:37:45.623Z,3.90
2023-09-06T19:40:14.113Z,4.27
2023-09-06T19:42:41.683Z,3.97
2023-09-06T19:45:11.362Z,4.27
2023-09-06T19:47:40.234Z,4.20
2023-09-06T19:50:08.309Z,4.20
2023-09-06T19:52:35.339Z,4.17
2023-09-06T19:55:04.294Z,4.03
2023-09-06T19:57:31.768Z,4.50
2023-09-06T19:59:58.924Z,4.47
2023-09-06T20:02:26.775Z,4.07
2023-09-06T20:04:54.868Z,4.00
2023-09-06T20:07:23.490Z,4.13
2023-09-06T20:09:51.905Z,3.73
2023-09-06T20:12:18.718Z,3.60
2023-09-06T20:14:46.027Z,4.03
2023-09-06T20:17:13.633Z,4.00
2023-09-06T20:19:41.125Z,3.73
2023-09-06T20:22:08.762Z,3.77
2023-09-06T20:24:37.581Z,3.80
2023-09-06T20:27:04.586Z,3.80
2023-09-06T20:29:34.030Z,3.97
2023-09-06T20:32:01.866Z,3.70
2023-09-06T20:34:28.867Z,4.10
2023-09-06T20:36:56.547Z,3.80
2023-09-06T20:39:24.575Z,3.70
2023-09-06T20:41:52.448Z,4.00
2023-09-06T20:44:19.945Z,3.77
2023-09-06T20:46:48.813Z,3.90
2023-09-06T20:49:17.604Z,4.37
2023-09-06T20:51:46.255Z,3.80
2023-09-06T20:54:14.442Z,3.67
2023-09-06T20:56:42.493Z,4.07
2023-09-06T20:59:09.897Z,3.83
2023-09-06T21:01:38.743Z,4.00
2023-09-06T21:04:06.092Z,4.27
2023-09-06T21:06:34.275Z,3.90
2023-09-06T21:09:02.162Z,4.00
2023-09-06T21:11:31.117Z,4.03
2023-09-06T21:13:59.410Z,3.93
2023-09-06T21:16:26.905Z,4.00
2023-09-06T21:18:54.649Z,3.93
2023-09-06T21:21:22.463Z,3.87
2023-09-06T21:23:50.053Z,4.33
2023-09-06T21:26:17.746Z,4.13
2023-09-06T21:28:44.883Z,3.97
2023-09-06T21:31:12.380Z,4.00
2023-09-06T21:33:39.681Z,4.27
2023-09-06T21:36:08.028Z,4.20
2023-09-06T21:38:37.061Z,4.00
2023-09-06T21:41:06.752Z,4.03
2023-09-06T21:43:35.831Z,4.40
2023-09-06T21:46:06.062Z,4.40
2023-09-06T21:48:33.833Z,4.07
2023-09-06T21:51:09.504Z,4.23
2023-09-06T21:53:38.157Z,4.27
2023-09-06T21:56:05.893Z,4.33
2023-09-06T21:58:35.570Z,4.30
2023-09-06T22:01:18.798Z,3.87
2023-09-06T22:04:05.369Z,4.63
2023-09-06T22:06:51.391Z,4.20
2023-09-06T22:09:37.416Z,4.80
2023-09-06T22:12:23.631Z,4.27
2023-09-06T22:14:51.713Z,4.70
2023-09-06T22:17:19.120Z,4.60
2023-09-06T22:19:47.414Z,4.30
2023-09-06T22:22:14.953Z,5.17
2023-09-06T22:24:43.678Z,5.37
2023-09-06T22:27:12.218Z,5.57
2023-09-06T22:29:40.210Z,5.30
2023-09-06T22:32:07.586Z,5.70
2023-09-06T22:34:37.517Z,5.70
2023-09-06T22:37:06.115Z,5.83
2023-09-06T22:39:36.258Z,6.40
2023-09-06T22:42:05.585Z,6.57
2023-09-06T22:44:33.861Z,6.37
2023-09-06T22:47:02.476Z,6.50
2023-09-06T22:49:31.081Z,6.70
2023-09-06T22:51:59.408Z,6.07
2023-09-06T22:54:26.628Z,6.33
2023-09-06T22:56:54.033Z,5.97
2023-09-06T22:59:22.492Z,6.40
2023-09-06T23:01:54.061Z,6.23
2023-09-06T23:04:21.618Z,6.87
2023-09-06T23:06:49.498Z,7.20
2023-09-06T23:09:20.805Z,6.97
2023-09-06T23:11:51.462Z,6.93
2023-09-06T23:14:19.624Z,6.90
2023-09-06T23:16:51.997Z,6.50
2023-09-06T23:19:29.085Z,6.40
2023-09-06T23:21:58.806Z,6.50
2023-09-06T23:24:26.379Z,6.73
2023-09-06T23:27:00.726Z,6.37
2023-09-06T23:29:36.751Z,6.53
2023-09-06T23:32:06.908Z,6.60
2023-09-06T23:34:36.786Z,6.97
2023-09-06T23:37:10.197Z,6.80
2023-09-06T23:39:42.394Z,6.93
2023-09-06T23:42:11.291Z,6.83
2023-09-06T23:44:42.701Z,6.87
2023-09-06T23:47:14.826Z,7.60
2023-09-06T23:49:45.015Z,7.40
2023-09-06T23:52:13.805Z,7.03
2023-09-06T23:54:47.734Z,7.43
2023-09-06T23:57:20.701Z,7.40
2023-09-06T23:59:49.512Z,7.33
